Time;durP1;ratioP1;P1;durP2;ratioP2;P2;SDS_P1;SDS_P2;PMS_P1;PMS_P2;Temp;Humidity;BMP_temperature;BMP_pressure;BME280_temperature;BME280_humidity;BME280_pressure;Samples;Min_cycle;Max_cycle;Signal;HPM_P1;HPM_P2
2023/09/05 00:01:47;;;;;;;4.30;3.57;;;18.00;99.90;;;;;;5056986;28;20452;-81
2023/09/05 00:04:14;;;;;;;4.53;3.77;;;18.00;99.90;;;;;;5064434;28;20470;-81
2023/09/05 00:06:41;;;;;;;5.00;3.93;;;18.00;99.90;;;;;;5056245;28;20941;-81
2023/09/05 00:09:08;;;;;;;6.67;4.00;;;17.90;99.90;;;;;;5056705;28;20440;-80
2023/09/05 00:11:35;;;;;;;4.20;3.80;;;18.00;99.90;;;;;;5056624;28;20818;-80
2023/09/05 00:14:02;;;;;;;6.40;4.23;;;17.90;99.90;;;;;;5066954;28;20457;-81
2023/09/05 00:16:30;;;;;;;5.33;4.03;;;17.90;99.90;;;;;;5067494;28;20462;-81
2023/09/05 00:18:57;;;;;;;5.50;4.07;;;17.90;99.90;;;;;;5056303;28;20525;-81
2023/09/05 00:21:24;;;;;;;7.57;4.90;;;17.90;99.90;;;;;;5056149;28;20456;-81
2023/09/05 00:23:51;;;;;;;3.70;3.40;;;17.90;99.90;;;;;;5064837;28;20459;-80
2023/09/05 00:26:18;;;;;;;4.70;4.20;;;17.90;99.90;;;;;;5075799;28;20450;-80
2023/09/05 00:28:48;;;;;;;7.10;3.90;;;17.80;99.90;;;;;;5078047;28;20443;-81
2023/09/05 00:31:15;;;;;;;4.20;3.60;;;17.80;99.90;;;;;;5079982;28;20839;-81
2023/09/05 00:33:44;;;;;;;4.10;3.70;;;17.80;99.90;;;;;;5069259;28;20463;-80
2023/09/05 00:36:11;;;;;;;4.77;4.17;;;17.80;99.90;;;;;;5055238;28;20477;-81
2023/09/05 00:38:38;;;;;;;5.43;3.50;;;17.80;99.90;;;;;;5056906;28;20496;-81
2023/09/05 00:41:05;;;;;;;3.97;3.57;;;17.70;99.90;;;;;;5055569;28;20842;-81
2023/09/05 00:43:32;;;;;;;3.40;3.10;;;17.70;99.90;;;;;;5056879;28;20478;-80
2023/09/05 00:45:59;;;;;;;6.13;3.50;;;17.70;99.90;;;;;;5075213;28;20946;-81
2023/09/05 00:48:28;;;;;;;4.83;3.87;;;17.70;99.90;;;;;;5075859;28;20443;-81
2023/09/05 00:50:57;;;;;;;4.57;3.97;;;17.60;99.90;;;;;;5084101;28;20441;-79
2023/09/05 00:53:25;;;;;;;4.63;3.50;;;17.60;99.90;;;;;;5089817;28;20898;-79
2023/09/05 00:55:52;;;;;;;4.93;4.07;;;17.60;99.90;;;;;;5077537;28;20482;-81
2023/09/05 00:58:19;;;;;;;5.50;4.97;;;17.60;99.90;;;;;;5080597;28;21017;-79
2023/09/05 01:00:46;;;;;;;4.53;3.97;;;17.60;99.90;;;;;;5079855;28;20450;-81
2023/09/05 01:03:13;;;;;;;4.20;3.80;;;17.60;99.90;;;;;;5079956;28;20450;-81
2023/09/05 01:05:48;;;;;;;4.10;3.60;;;17.60;99.90;;;;;;5072945;28;20568;-81
2023/09/05 01:08:22;;;;;;;4.53;3.83;;;17.50;99.90;;;;;;5059638;28;20454;-81
2023/09/05 01:10:56;;;;;;;3.50;2.83;;;17.50;99.90;;;;;;5059503;28;20932;-81
2023/09/05 01:13:25;;;;;;;5.30;3.80;;;17.40;99.90;;;;;;5074245;28;20454;-80
2023/09/05 01:15:52;;;;;;;4.63;2.90;;;17.40;99.90;;;;;;5079287;28;20473;-81
2023/09/05 01:18:18;;;;;;;4.10;2.90;;;17.40;99.90;;;;;;5065429;28;20987;-81
2023/09/05 01:20:55;;;;;;;4.70;3.60;;;17.40;99.90;;;;;;5059597;28;20442;-80
2023/09/05 01:23:32;;;;;;;6.50;3.83;;;17.30;99.90;;;;;;5061670;28;20438;-81
2023/09/05 01:26:00;;;;;;;4.90;3.20;;;17.30;99.90;;;;;;5079159;28;21012;-81
2023/09/05 01:28:28;;;;;;;3.60;2.97;;;17.30;99.90;;;;;;5080475;28;20456;-81
2023/09/05 01:30:55;;;;;;;5.00;3.47;;;17.30;99.90;;;;;;5080517;28;20452;-81
2023/09/05 01:33:22;;;;;;;5.13;3.73;;;17.30;99.90;;;;;;5069518;28;20455;-81
2023/09/05 01:35:49;;;;;;;5.70;3.87;;;17.30;99.90;;;;;;5078918;28;20474;-81
2023/09/05 01:38:15;;;;;;;4.10;3.40;;;17.30;99.90;;;;;;5078263;28;20490;-81
2023/09/05 01:40:42;;;;;;;3.83;3.43;;;17.20;99.90;;;;;;5078313;28;20457;-81
2023/09/05 01:43:10;;;;;;;5.03;3.70;;;17.20;99.90;;;;;;5079963;28;20446;-81
2023/09/05 01:45:37;;;;;;;4.30;3.33;;;17.20;99.90;;;;;;5074397;28;20553;-81
2023/09/05 01:48:04;;;;;;;6.63;3.67;;;17.20;99.90;;;;;;5079813;28;20449;-82
2023/09/05 01:50:33;;;;;;;4.80;3.40;;;17.20;99.90;;;;;;5079783;28;20449;-81
2023/09/05 01:52:59;;;;;;;3.87;2.70;;;17.10;99.90;;;;;;5079183;28;20456;-81
2023/09/05 01:55:26;;;;;;;8.73;3.80;;;17.10;99.90;;;;;;5060872;28;20471;-81
2023/09/05 01:57:53;;;;;;;7.57;3.07;;;17.10;99.90;;;;;;5076147;28;20479;-81
2023/09/05 02:00:21;;;;;;;4.70;2.83;;;17.00;99.90;;;;;;5075528;28;20456;-81
2023/09/05 02:02:48;;;;;;;3.83;2.93;;;17.00;99.90;;;;;;5080179;28;20456;-81
2023/09/05 02:05:15;;;;;;;4.40;3.30;;;17.00;99.90;;;;;;5078945;28;20486;-80
2023/09/05 02:07:42;;;;;;;3.63;2.80;;;17.00;99.90;;;;;;5079842;28;20444;-81
2023/09/05 02:10:10;;;;;;;4.07;3.00;;;17.00;99.90;;;;;;5079122;28;20472;-81
2023/09/05 02:12:37;;;;;;;4.67;2.87;;;17.00;99.90;;;;;;5063238;28;20975;-81
2023/09/05 02:15:05;;;;;;;3.33;2.73;;;17.00;99.90;;;;;;5059069;28;20479;-81
2023/09/05 02:17:35;;;;;;;3.43;2.50;;;17.00;99.90;;;;;;5059033;28;20984;-81
2023/09/05 02:20:03;;;;;;;4.20;2.60;;;16.90;99.90;;;;;;5078965;28;20456;-81
2023/09/05 02:22:30;;;;;;;4.73;3.00;;;16.90;99.90;;;;;;5078815;28;20457;-81
2023/09/05 02:24:59;;;;;;;4.60;3.07;;;16.90;99.90;;;;;;5077904;28;20466;-81
2023/09/05 02:27:26;;;;;;;3.70;3.20;;;16.90;99.90;;;;;;5077909;28;20845;-81
2023/09/05 02:29:59;;;;;;;4.33;3.20;;;16.90;99.90;;;;;;5070221;28;20462;-81
2023/09/05 02:32:29;;;;;;;4.43;2.50;;;16.90;99.90;;;;;;5078087;28;20444;-82
2023/09/05 02:34:57;;;;;;;4.50;3.00;;;16.90;99.90;;;;;;5078759;28;20869;-81
2023/09/05 02:37:24;;;;;;;3.60;2.70;;;16.80;99.90;;;;;;5083663;28;20516;-81
2023/09/05 02:39:51;;;;;;;3.40;3.00;;;16.80;99.90;;;;;;5084965;28;20987;-82
2023/09/05 02:42:18;;;;;;;4.07;3.60;;;16.80;99.90;;;;;;5078901;28;20463;-80
2023/09/05 02:44:45;;;;;;;4.23;2.70;;;16.80;99.90;;;;;;5078735;28;20468;-81
2023/09/05 02:47:11;;;;;;;4.03;2.80;;;16.80;99.90;;;;;;5064022;28;20447;-80
2023/09/05 02:49:38;;;;;;;2.87;2.23;;;16.80;99.90;;;;;;5058593;28;20455;-82
2023/09/05 02:52:06;;;;;;;6.23;3.47;;;16.80;99.90;;;;;;5075276;28;20451;-81
2023/09/05 02:54:33;;;;;;;3.70;2.73;;;16.80;99.90;;;;;;5078252;28;20500;-80
2023/09/05 02:57:00;;;;;;;3.40;2.63;;;16.80;99.90;;;;;;5078397;28;20450;-82
2023/09/05 02:59:27;;;;;;;3.90;3.17;;;16.70;99.90;;;;;;5074015;28;20580;-81
2023/09/05 03:01:53;;;;;;;2.90;2.60;;;16.70;99.90;;;;;;5073387;28;20465;-81
2023/09/05 03:04:20;;;;;;;5.10;2.90;;;16.70;99.90;;;;;;5073698;28;20491;-81
2023/09/05 03:06:47;;;;;;;4.83;2.80;;;16.70;99.90;;;;;;5077650;28;20452;-81
2023/09/05 03:09:15;;;;;;;5.97;3.17;;;16.70;99.90;;;;;;5078332;28;20453;-81
2023/09/05 03:11:42;;;;;;;3.50;2.83;;;16.60;99.90;;;;;;5069965;28;20451;-81
2023/09/05 03:14:09;;;;;;;3.53;3.00;;;16.70;99.90;;;;;;5078205;28;20466;-81
2023/09/05 03:16:36;;;;;;;4.57;3.50;;;16.60;99.90;;;;;;5076739;28;20457;-81
2023/09/05 03:19:02;;;;;;;4.30;3.17;;;16.60;99.90;;;;;;5077352;28;20488;-82
2023/09/05 03:21:29;;;;;;;3.83;3.40;;;16.60;99.90;;;;;;5077777;28;20521;-81
2023/09/05 03:23:56;;;;;;;4.07;3.50;;;16.60;99.90;;;;;;5078232;28;20518;-81
2023/09/05 03:26:24;;;;;;;5.37;3.07;;;16.50;99.90;;;;;;5076755;28;21034;-81
2023/09/05 03:28:51;;;;;;;3.57;3.27;;;16.50;99.90;;;;;;5077905;28;20447;-81
2023/09/05 03:31:18;;;;;;;6.23;3.43;;;16.50;99.90;;;;;;5076910;28;20454;-81
2023/09/05 03:33:45;;;;;;;6.93;3.70;;;16.50;99.90;;;;;;5078093;28;20457;-81
2023/09/05 03:36:12;;;;;;;6.03;3.80;;;16.50;99.90;;;;;;5077160;28;20496;-81
2023/09/05 03:38:39;;;;;;;4.77;2.97;;;16.60;99.90;;;;;;5075014;28;20491;-81
2023/09/05 03:41:05;;;;;;;7.00;3.33;;;16.60;99.90;;;;;;5057483;28;20523;-79
2023/09/05 03:43:34;;;;;;;3.33;2.80;;;16.60;99.90;;;;;;5057959;28;20844;-81
2023/09/05 03:46:01;;;;;;;3.00;2.70;;;16.50;99.90;;;;;;5056462;28;20487;-81
2023/09/05 03:48:28;;;;;;;5.40;3.43;;;16.50;99.90;;;;;;5059150;28;20450;-80
2023/09/05 03:50:54;;;;;;;7.13;3.37;;;16.50;99.90;;;;;;5077367;28;20450;-81
2023/09/05 03:53:21;;;;;;;4.97;2.93;;;16.50;99.90;;;;;;5076787;28;20452;-81
2023/09/05 03:55:48;;;;;;;5.73;3.10;;;16.50;99.90;;;;;;5060180;28;20482;-81
2023/09/05 03:58:15;;;;;;;4.33;2.93;;;16.50;99.90;;;;;;5056998;28;20579;-81
2023/09/05 04:00:43;;;;;;;4.27;3.00;;;16.50;99.90;;;;;;5076224;28;20452;-81
2023/09/05 04:03:10;;;;;;;7.93;3.47;;;16.40;99.90;;;;;;5077086;28;20447;-82
2023/09/05 04:05:37;;;;;;;4.53;2.83;;;16.40;99.90;;;;;;5076420;28;20533;-81
2023/09/05 04:08:07;;;;;;;3.77;3.37;;;16.40;99.90;;;;;;5066436;28;20534;-81
2023/09/05 04:10:34;;;;;;;4.33;2.93;;;16.40;99.90;;;;;;5069119;28;20513;-82
2023/09/05 04:13:01;;;;;;;4.20;3.43;;;16.40;99.90;;;;;;5070328;28;20458;-81
2023/09/05 04:15:28;;;;;;;4.90;3.30;;;16.40;99.90;;;;;;5076397;28;20455;-80
2023/09/05 04:17:56;;;;;;;5.30;3.40;;;16.40;99.90;;;;;;5076713;28;20447;-81
2023/09/05 04:20:23;;;;;;;4.70;3.17;;;16.40;99.90;;;;;;5060046;28;20463;-81
2023/09/05 04:22:50;;;;;;;6.80;3.50;;;16.30;99.90;;;;;;5060577;28;20458;-81
2023/09/05 04:25:17;;;;;;;4.87;3.10;;;16.40;99.90;;;;;;5064142;28;20467;-79
2023/09/05 04:27:45;;;;;;;4.80;3.47;;;16.40;99.90;;;;;;5070029;28;20494;-79
2023/09/05 04:30:13;;;;;;;3.93;3.33;;;16.30;99.90;;;;;;5081932;28;20463;-79
2023/09/05 04:32:42;;;;;;;3.80;3.07;;;16.40;99.90;;;;;;5091280;28;20460;-81
2023/09/05 04:35:11;;;;;;;4.60;2.90;;;16.30;99.90;;;;;;5109960;22;20528;-81
2023/09/05 04:37:38;;;;;;;4.63;3.60;;;16.30;99.90;;;;;;5080259;28;20443;-82
2023/09/05 04:40:07;;;;;;;8.20;5.03;;;16.30;99.90;;;;;;5080861;28;20491;-80
2023/09/05 04:42:34;;;;;;;6.43;5.67;;;16.30;99.90;;;;;;5080816;28;20877;-80
2023/09/05 04:45:01;;;;;;;4.87;3.60;;;16.30;99.90;;;;;;5079257;28;20470;-82
2023/09/05 04:47:28;;;;;;;5.33;3.70;;;16.30;99.90;;;;;;5078163;28;20456;-83
2023/09/05 04:49:59;;;;;;;3.93;3.03;;;16.30;99.90;;;;;;5077599;28;20545;-81
2023/09/05 04:52:28;;;;;;;4.33;2.97;;;16.30;99.90;;;;;;5078944;28;20525;-85
2023/09/05 04:54:57;;;;;;;4.30;3.30;;;16.30;99.90;;;;;;5079805;28;20883;-82
2023/09/05 04:57:24;;;;;;;4.00;3.40;;;16.30;99.90;;;;;;5080282;28;20455;-84
2023/09/05 04:59:57;;;;;;;5.77;3.97;;;16.30;99.90;;;;;;5079653;28;20538;-83
2023/09/05 05:02:25;;;;;;;7.03;3.43;;;16.30;99.90;;;;;;5080083;28;20466;-84
2023/09/05 05:04:53;;;;;;;7.77;4.17;;;16.30;99.90;;;;;;5079818;28;20464;-84
2023/09/05 05:07:20;;;;;;;3.80;3.40;;;16.30;99.90;;;;;;5078855;28;20466;-82
2023/09/05 05:09:48;;;;;;;5.40;4.07;;;16.30;99.90;;;;;;5080299;28;20904;-83
2023/09/05 05:12:16;;;;;;;5.77;4.20;;;16.30;99.90;;;;;;5072248;28;20549;-83
2023/09/05 05:14:43;;;;;;;4.63;3.90;;;16.30;99.90;;;;;;5073577;28;20908;-84
2023/09/05 05:17:12;;;;;;;5.57;3.83;;;16.30;99.90;;;;;;5090685;28;20456;-81
2023/09/05 05:19:39;;;;;;;4.90;4.10;;;16.30;99.90;;;;;;5064129;28;20526;-81
2023/09/05 05:22:06;;;;;;;7.70;3.43;;;16.30;99.90;;;;;;5056083;28;20555;-82
2023/09/05 05:24:33;;;;;;;4.97;3.83;;;16.40;99.90;;;;;;5076627;28;20462;-81
2023/09/05 05:27:05;;;;;;;6.77;4.53;;;16.40;99.90;;;;;;5049047;28;20454;-84
2023/09/05 05:29:32;;;;;;;7.33;5.90;;;16.40;99.90;;;;;;5072794;28;20457;-83
2023/09/05 05:32:00;;;;;;;6.77;5.80;;;16.40;99.90;;;;;;5078612;28;20460;-83
2023/09/05 05:34:27;;;;;;;7.70;5.30;;;16.40;99.90;;;;;;5078994;28;20459;-80
2023/09/05 05:36:53;;;;;;;7.00;4.77;;;16.40;99.90;;;;;;5075895;28;20471;-82
2023/09/05 05:39:22;;;;;;;10.13;4.30;;;16.50;99.90;;;;;;5076190;28;20590;-83
2023/09/05 05:41:49;;;;;;;5.73;4.20;;;16.50;99.90;;;;;;5079063;28;20479;-82
2023/09/05 05:44:17;;;;;;;7.57;3.80;;;16.50;99.90;;;;;;5078796;28;20455;-80
2023/09/05 05:46:44;;;;;;;7.13;3.43;;;16.60;99.90;;;;;;5077719;28;20463;-81
2023/09/05 05:49:11;;;;;;;5.03;3.80;;;16.60;99.90;;;;;;5076963;28;20486;-83
2023/09/05 05:51:38;;;;;;;4.67;3.50;;;16.70;99.90;;;;;;5077226;28;20535;-82
2023/09/05 05:54:05;;;;;;;4.30;3.37;;;16.70;99.90;;;;;;5077018;28;20562;-81
2023/09/05 05:56:32;;;;;;;4.53;3.70;;;16.70;99.90;;;;;;5075768;28;20533;-83
2023/09/05 05:58:59;;;;;;;4.87;3.57;;;16.80;99.90;;;;;;5076809;28;20487;-82
2023/09/05 06:01:27;;;;;;;4.10;3.17;;;16.90;99.90;;;;;;5075415;28;20458;-80
2023/09/05 06:03:54;;;;;;;4.43;3.50;;;16.90;99.90;;;;;;5077279;28;20461;-81
2023/09/05 06:06:21;;;;;;;6.03;3.53;;;17.00;99.90;;;;;;5076677;28;20902;-78
2023/09/05 06:08:47;;;;;;;5.37;3.30;;;17.00;99.90;;;;;;5076739;28;20877;-82
2023/09/05 06:11:14;;;;;;;7.97;3.93;;;17.10;99.90;;;;;;5080480;28;20456;-81
2023/09/05 06:13:41;;;;;;;4.87;4.37;;;17.10;99.90;;;;;;5078784;28;20534;-82
2023/09/05 06:16:08;;;;;;;4.40;3.63;;;17.20;99.90;;;;;;5071106;28;20541;-82
2023/09/05 06:18:36;;;;;;;6.87;3.30;;;17.20;99.90;;;;;;5075435;28;20451;-82
2023/09/05 06:21:03;;;;;;;4.27;3.63;;;17.30;99.90;;;;;;5071027;28;20464;-82
2023/09/05 06:23:30;;;;;;;5.03;3.97;;;17.40;99.90;;;;;;5078304;28;20453;-83
2023/09/05 06:25:57;;;;;;;5.23;3.70;;;17.40;99.90;;;;;;5076590;28;21013;-83
2023/09/05 06:28:24;;;;;;;4.43;3.60;;;17.40;99.90;;;;;;5075806;28;20453;-82
2023/09/05 06:30:51;;;;;;;5.43;3.97;;;17.50;99.90;;;;;;5077409;28;20490;-82
2023/09/05 06:33:19;;;;;;;4.30;3.47;;;17.60;99.90;;;;;;5076117;28;20456;-81
2023/09/05 06:35:47;;;;;;;3.80;3.40;;;17.60;99.90;;;;;;5074303;28;20554;-82
2023/09/05 06:38:14;;;;;;;5.83;3.60;;;17.70;99.90;;;;;;5075010;28;20477;-82
2023/09/05 06:40:41;;;;;;;4.83;3.30;;;17.70;99.90;;;;;;5075790;28;20482;-80
2023/09/05 06:43:10;;;;;;;10.60;3.90;;;17.80;99.90;;;;;;5076643;28;20443;-82
2023/09/05 06:45:37;;;;;;;4.10;3.50;;;17.90;99.90;;;;;;5077901;28;20757;-82
2023/09/05 06:48:05;;;;;;;5.57;3.80;;;17.90;99.90;;;;;;5072074;28;20454;-80
2023/09/05 06:50:32;;;;;;;5.80;3.57;;;17.90;99.90;;;;;;5072433;28;20840;-80
2023/09/05 06:53:00;;;;;;;3.87;3.30;;;18.00;99.90;;;;;;5067490;28;20452;-78
2023/09/05 06:55:28;;;;;;;5.20;3.07;;;18.00;99.90;;;;;;5073527;28;20478;-79
2023/09/05 06:57:55;;;;;;;5.33;3.53;;;18.10;99.90;;;;;;5074261;28;20488;-80
2023/09/05 07:00:23;;;;;;;5.03;3.93;;;18.10;99.90;;;;;;5074618;28;20475;-80
2023/09/05 07:02:51;;;;;;;6.03;3.50;;;18.20;99.90;;;;;;5073657;28;20451;-81
2023/09/05 07:05:18;;;;;;;4.70;3.93;;;18.30;99.90;;;;;;5073648;28;20481;-79
2023/09/05 07:07:44;;;;;;;4.00;3.60;;;18.30;99.90;;;;;;5074146;28;20450;-80
2023/09/05 07:10:13;;;;;;;5.37;3.77;;;18.40;99.90;;;;;;5074782;28;20453;-80
2023/09/05 07:12:40;;;;;;;4.50;4.10;;;18.40;99.90;;;;;;5074012;28;20459;-81
2023/09/05 07:15:07;;;;;;;5.57;3.63;;;18.50;99.90;;;;;;5073562;28;20471;-79
2023/09/05 07:30:05;;;;;;;3.83;2.93;;;18.60;99.90;;;;;;5115321;27;1283059;-81
2023/09/05 07:32:35;;;;;;;5.57;3.27;;;19.10;99.90;;;;;;5154712;27;20459;-80
2023/09/05 07:35:03;;;;;;;5.63;3.57;;;19.20;99.90;;;;;;5130199;22;21019;-81
2023/09/05 07:37:30;;;;;;;5.87;4.30;;;19.30;99.90;;;;;;5032409;28;20452;-80
2023/09/05 07:39:56;;;;;;;4.57;3.50;;;19.30;99.90;;;;;;5026481;28;20448;-80
2023/09/05 07:42:23;;;;;;;5.53;3.67;;;19.30;99.90;;;;;;5033139;28;20453;-82
2023/09/05 07:44:51;;;;;;;4.77;2.80;;;19.30;99.90;;;;;;5032940;28;20477;-80
2023/09/05 08:10:43;;;;;;;2.80;2.43;;;19.20;99.90;;;;;;5113258;27;20555;-77
2023/09/05 08:13:12;;;;;;;6.87;2.70;;;19.90;99.90;;;;;;5103721;28;20807;-77
2023/09/05 08:15:40;;;;;;;5.83;3.13;;;20.00;99.90;;;;;;5102768;28;20465;-77
2023/09/05 08:18:07;;;;;;;3.60;2.53;;;20.10;99.90;;;;;;5102485;28;20453;-78
2023/09/05 08:20:34;;;;;;;5.60;2.70;;;20.30;99.90;;;;;;5102288;28;20454;-79
2023/09/05 08:23:01;;;;;;;3.30;2.57;;;20.40;99.90;;;;;;5106867;28;20833;-78
2023/09/05 08:25:28;;;;;;;7.23;2.73;;;20.50;99.90;;;;;;5104680;28;21731;-78
2023/09/05 08:27:57;;;;;;;5.13;3.40;;;20.60;99.90;;;;;;5095210;28;20968;-79
2023/09/05 08:30:25;;;;;;;5.83;2.90;;;20.80;99.90;;;;;;5101692;28;20465;-80
2023/09/05 08:32:53;;;;;;;6.70;3.03;;;20.80;99.90;;;;;;5096012;28;20481;-79
2023/09/05 08:35:19;;;;;;;5.23;3.00;;;21.00;99.90;;;;;;5098690;28;21033;-79
2023/09/05 08:37:46;;;;;;;5.57;2.73;;;21.20;99.90;;;;;;5094429;28;20568;-80
2023/09/05 08:40:13;;;;;;;4.40;2.50;;;21.50;99.90;;;;;;5093374;28;20525;-78
2023/09/05 08:42:40;;;;;;;4.60;2.80;;;21.90;99.90;;;;;;5108070;28;20506;-80
2023/09/05 08:45:12;;;;;;;6.40;3.47;;;22.20;99.90;;;;;;5099122;28;20537;-80
2023/09/05 08:47:39;;;;;;;4.10;2.80;;;22.50;99.90;;;;;;5108115;28;20465;-79
2023/09/05 08:50:08;;;;;;;5.27;2.00;;;22.70;99.90;;;;;;5105856;28;20487;-79
2023/09/05 08:52:39;;;;;;;5.73;2.97;;;22.80;99.90;;;;;;5104793;28;20829;-80
2023/09/05 08:55:07;;;;;;;3.33;2.90;;;22.90;99.90;;;;;;5113087;28;20438;-79
2023/09/05 08:57:35;;;;;;;5.33;3.03;;;22.90;99.90;;;;;;5097554;28;20470;-77
2023/09/05 09:00:06;;;;;;;5.70;2.67;;;22.90;99.90;;;;;;5106308;28;20833;-77
2023/09/05 09:02:35;;;;;;;5.83;3.07;;;22.90;99.90;;;;;;5101575;28;20469;-77
2023/09/05 09:05:03;;;;;;;6.80;3.03;;;22.90;99.90;;;;;;5105733;28;20449;-77
2023/09/05 09:07:30;;;;;;;7.37;2.67;;;23.00;99.90;;;;;;5099659;28;20445;-76
2023/09/05 09:09:58;;;;;;;3.40;1.87;;;23.00;99.90;;;;;;5112105;28;20513;-77
2023/09/05 09:12:29;;;;;;;6.27;2.50;;;23.10;99.90;;;;;;5113982;28;20477;-78
2023/09/05 09:14:56;;;;;;;3.90;2.33;;;23.20;99.90;;;;;;5114704;28;20444;-77
2023/09/05 09:17:23;;;;;;;4.20;2.17;;;23.40;99.90;;;;;;5114291;28;20459;-78
2023/09/05 09:19:53;;;;;;;3.67;1.97;;;23.70;99.90;;;;;;5106818;28;20477;-77
2023/09/05 09:22:24;;;;;;;5.50;1.90;;;23.80;99.90;;;;;;5105642;28;20464;-77
2023/09/05 09:24:52;;;;;;;4.30;1.90;;;23.90;99.90;;;;;;5107688;28;20449;-78
2023/09/05 09:27:22;;;;;;;5.80;2.03;;;24.10;99.90;;;;;;5096608;28;20454;-77
2023/09/05 09:29:55;;;;;;;5.50;5.00;;;24.30;99.90;;;;;;5097441;28;21001;-77
2023/09/05 09:32:24;;;;;;;3.20;2.40;;;24.50;99.90;;;;;;5096512;28;20468;-77
2023/09/05 09:34:53;;;;;;;15.90;13.10;;;24.60;99.90;;;;;;5095139;28;20537;-79
2023/09/05 09:37:25;;;;;;;15.53;13.83;;;24.80;99.90;;;;;;5113745;28;20544;-77
2023/09/05 09:39:59;;;;;;;7.80;6.70;;;25.00;99.90;;;;;;5118799;28;20449;-77
2023/09/05 09:42:26;;;;;;;4.83;3.43;;;25.20;99.90;;;;;;5103833;28;20478;-77
2023/09/05 09:44:53;;;;;;;4.63;2.60;;;25.40;99.90;;;;;;5117884;28;20536;-77
2023/09/05 09:47:20;;;;;;;4.03;1.77;;;25.70;99.90;;;;;;5114036;28;20929;-77
2023/09/05 09:49:54;;;;;;;3.60;1.80;;;26.00;99.90;;;;;;5115835;28;20477;-79
2023/09/05 09:52:22;;;;;;;2.90;2.10;;;26.20;99.90;;;;;;5118444;28;20575;-77
2023/09/05 09:54:51;;;;;;;3.43;2.00;;;26.50;99.90;;;;;;5118172;28;20548;-78
2023/09/05 09:57:22;;;;;;;2.63;1.60;;;26.80;99.90;;;;;;5119939;28;20519;-78
2023/09/05 09:59:51;;;;;;;2.17;1.20;;;27.00;99.90;;;;;;5118907;28;20445;-77
2023/09/05 10:02:18;;;;;;;2.60;1.70;;;27.30;99.90;;;;;;5104294;28;20562;-77
2023/09/05 10:04:46;;;;;;;3.73;2.03;;;27.50;99.90;;;;;;5102976;28;20509;-79
2023/09/05 10:07:15;;;;;;;4.20;3.13;;;27.80;99.90;;;;;;5111320;28;20454;-78
2023/09/05 10:09:43;;;;;;;3.13;1.50;;;27.90;99.90;;;;;;5101703;28;20489;-77
2023/09/05 10:12:10;;;;;;;2.40;1.20;;;28.00;99.90;;;;;;5108594;28;20474;-78
2023/09/05 10:14:39;;;;;;;2.20;1.00;;;28.30;99.90;;;;;;5119095;28;20445;-79
2023/09/05 10:17:06;;;;;;;2.80;1.23;;;28.50;99.90;;;;;;5115955;28;20930;-78
2023/09/05 10:19:34;;;;;;;2.40;1.33;;;28.70;99.90;;;;;;5108236;28;20514;-79
2023/09/05 10:22:02;;;;;;;2.13;1.37;;;28.80;99.90;;;;;;5101978;28;20519;-80
2023/09/05 10:24:32;;;;;;;6.50;1.43;;;29.10;99.90;;;;;;5101937;28;20842;-78
2023/09/05 10:26:59;;;;;;;3.50;1.50;;;29.20;99.90;;;;;;5115290;28;20921;-79
2023/09/05 10:29:34;;;;;;;4.00;1.60;;;29.40;99.90;;;;;;5118964;28;20488;-79
2023/09/05 10:32:02;;;;;;;3.53;2.13;;;29.70;99.90;;;;;;5118269;28;20473;-78
2023/09/05 10:34:55;;;;;;;5.07;4.67;;;29.80;99.90;;;;;;5119678;28;20468;-79
2023/09/05 10:37:23;;;;;;;14.27;3.90;;;29.80;99.90;;;;;;5099168;28;20439;-78
2023/09/05 10:39:54;;;;;;;5.27;4.33;;;30.00;99.90;;;;;;5106427;28;20898;-78
2023/09/05 10:42:28;;;;;;;5.13;4.20;;;30.00;99.90;;;;;;5119072;28;20497;-79
2023/09/05 10:44:56;;;;;;;3.77;3.37;;;30.20;99.90;;;;;;5107880;28;20445;-78
2023/09/05 10:47:27;;;;;;;4.70;1.50;;;30.30;99.90;;;;;;5109730;28;20447;-77
2023/09/05 10:49:59;;;;;;;2.20;1.03;;;30.40;99.90;;;;;;5117962;28;20637;-79
2023/09/05 10:52:29;;;;;;;4.00;1.40;;;30.60;99.90;;;;;;5105906;28;21010;-77
2023/09/05 10:54:58;;;;;;;2.73;1.30;;;30.70;93.30;;;;;;5097674;28;20450;-77
2023/09/05 10:57:38;;;;;;;2.93;1.00;;;30.90;99.90;;;;;;5099642;28;20450;-78
2023/09/05 11:00:28;;;;;;;2.37;1.40;;;31.00;99.90;;;;;;5114552;28;20463;-78
2023/09/05 11:02:56;;;;;;;3.40;1.30;;;31.20;99.90;;;;;;5119314;28;20475;-79
2023/09/05 11:05:27;;;;;;;2.20;1.13;;;31.30;99.90;;;;;;5119723;28;20532;-79
2023/09/05 11:07:55;;;;;;;5.63;1.20;;;31.40;99.90;;;;;;5121091;28;20449;-78
2023/09/05 11:10:31;;;;;;;4.63;1.37;;;31.60;99.90;;;;;;5119920;28;20491;-77
2023/09/05 11:13:08;;;;;;;3.80;1.33;;;31.70;99.90;;;;;;5116438;28;20444;-78
2023/09/05 11:15:36;;;;;;;3.47;2.40;;;31.80;98.90;;;;;;5105350;28;20442;-78
2023/09/05 11:18:05;;;;;;;2.83;1.87;;;31.80;97.30;;;;;;5104147;28;20516;-80
2023/09/05 11:20:39;;;;;;;2.97;1.90;;;31.90;99.90;;;;;;5122488;28;20517;-78
2023/09/05 11:23:16;;;;;;;2.37;1.40;;;32.10;99.90;;;;;;5102829;28;20442;-78
2023/09/05 11:25:46;;;;;;;2.87;1.90;;;32.00;96.30;;;;;;5102684;28;20528;-78
2023/09/05 11:28:14;;;;;;;2.20;1.70;;;32.10;99.60;;;;;;5120342;28;20445;-78
2023/09/05 11:30:42;;;;;;;3.60;1.70;;;32.30;99.90;;;;;;5112365;28;20484;-78
2023/09/05 11:33:09;;;;;;;3.33;1.70;;;32.50;1.00;;;;;;5103173;28;20541;-78
2023/09/05 11:35:38;;;;;;;2.40;2.00;;;32.70;1.00;;;;;;5115496;28;20454;-79
2023/09/05 11:38:05;;;;;;;3.73;2.10;;;32.90;1.00;;;;;;5117982;28;20463;-80
2023/09/05 11:40:31;;;;;;;3.10;1.47;;;33.00;1.00;;;;;;5122037;28;20541;-79
2023/09/05 11:43:07;;;;;;;2.80;1.73;;;33.10;1.00;;;;;;5103275;28;20461;-78
2023/09/05 11:45:35;;;;;;;2.30;1.30;;;33.10;1.00;;;;;;5113692;28;20448;-78
2023/09/05 11:48:04;;;;;;;2.60;1.60;;;33.10;1.00;;;;;;5117610;28;20453;-78
2023/09/05 11:50:32;;;;;;;4.70;1.30;;;33.10;1.00;;;;;;5105141;28;20488;-78
2023/09/05 11:53:00;;;;;;;2.20;1.20;;;33.40;1.00;;;;;;5113643;28;20465;-78
2023/09/05 11:55:27;;;;;;;2.07;1.00;;;33.50;1.00;;;;;;5117350;28;20536;-77
2023/09/05 11:57:55;;;;;;;4.00;1.43;;;33.40;1.00;;;;;;5112001;28;20449;-78
2023/09/05 12:00:25;;;;;;;1.97;1.17;;;33.60;1.00;;;;;;5116812;28;20459;-78
2023/09/05 12:02:52;;;;;;;2.40;1.53;;;33.60;1.00;;;;;;5110672;28;20536;-79
2023/09/05 12:05:20;;;;;;;2.57;1.70;;;33.50;1.00;;;;;;5118790;28;20481;-78
2023/09/05 12:07:50;;;;;;;2.57;1.30;;;33.60;1.00;;;;;;5119873;28;20678;-78
2023/09/05 12:10:17;;;;;;;2.03;1.20;;;33.60;1.00;;;;;;5108476;28;20478;-79
2023/09/05 12:12:55;;;;;;;2.07;1.07;;;33.80;1.00;;;;;;5113190;28;20533;-78
2023/09/05 12:15:30;;;;;;;2.50;1.27;;;34.10;1.00;;;;;;5101785;28;20532;-78
2023/09/05 12:17:57;;;;;;;2.30;1.10;;;34.00;1.00;;;;;;5114999;28;20564;-77
2023/09/05 12:20:24;;;;;;;3.37;1.57;;;34.30;1.00;;;;;;5119596;28;20445;-80
2023/09/05 12:22:51;;;;;;;2.50;1.50;;;34.50;1.00;;;;;;5103660;28;20541;-79
2023/09/05 12:25:19;;;;;;;2.50;1.10;;;34.70;1.00;;;;;;5114544;28;20486;-78
2023/09/05 12:27:47;;;;;;;2.33;1.57;;;34.90;1.00;;;;;;5110784;28;20801;-78
2023/09/05 12:30:30;;;;;;;4.53;1.50;;;35.20;1.00;;;;;;5104680;28;20510;-78
2023/09/05 12:32:57;;;;;;;4.60;1.57;;;35.00;1.00;;;;;;5120864;28;20532;-78
2023/09/05 12:35:25;;;;;;;3.87;1.33;;;35.10;1.00;;;;;;5123692;28;20449;-78
2023/09/05 12:37:52;;;;;;;3.03;1.37;;;35.00;1.00;;;;;;5119462;28;20457;-79
2023/09/05 12:40:21;;;;;;;2.53;1.00;;;34.90;1.00;;;;;;5106469;28;20457;-78
2023/09/05 12:42:49;;;;;;;2.37;1.40;;;34.90;1.00;;;;;;5105167;28;20466;-78
2023/09/05 12:45:17;;;;;;;3.30;1.50;;;34.90;1.00;;;;;;5118831;28;20761;-79
2023/09/05 12:47:49;;;;;;;3.30;1.63;;;34.90;1.00;;;;;;5123224;28;20445;-79
2023/09/05 12:50:16;;;;;;;3.30;1.70;;;34.90;1.00;;;;;;5119052;28;20480;-79
2023/09/05 12:52:44;;;;;;;2.40;1.53;;;34.80;1.00;;;;;;5105385;28;20469;-78
2023/09/05 12:55:11;;;;;;;3.60;1.47;;;34.90;1.00;;;;;;5108113;28;20468;-78
2023/09/05 12:57:39;;;;;;;2.40;1.40;;;34.90;1.00;;;;;;5121954;28;20873;-79
2023/09/05 13:00:08;;;;;;;3.40;1.10;;;34.90;1.00;;;;;;5123541;28;20527;-79
2023/09/05 13:02:35;;;;;;;2.30;1.20;;;34.80;1.00;;;;;;5118179;28;20476;-79
2023/09/05 13:05:04;;;;;;;1.93;1.20;;;35.00;1.00;;;;;;5105708;28;20790;-79
2023/09/05 13:07:31;;;;;;;2.87;1.20;;;35.00;1.00;;;;;;5108358;28;20441;-79
2023/09/05 13:09:58;;;;;;;1.90;1.30;;;35.00;1.00;;;;;;5115930;28;20505;-80
2023/09/05 13:12:25;;;;;;;1.90;1.10;;;35.00;1.00;;;;;;5115018;28;20473;-80
2023/09/05 13:14:52;;;;;;;2.53;1.00;;;34.70;1.00;;;;;;5101916;28;20525;-78
2023/09/05 13:17:19;;;;;;;1.90;0.90;;;34.70;1.00;;;;;;5110150;28;20465;-81
2023/09/05 13:19:48;;;;;;;4.30;1.70;;;34.80;1.00;;;;;;5105640;28;20461;-80
2023/09/05 13:22:17;;;;;;;2.50;1.23;;;34.90;1.00;;;;;;5109678;28;20469;-79
2023/09/05 13:24:47;;;;;;;2.77;1.30;;;34.80;1.00;;;;;;5113920;28;20453;-79
2023/09/05 13:27:14;;;;;;;2.00;1.30;;;34.80;1.00;;;;;;5115509;28;21900;-79
2023/09/05 13:29:41;;;;;;;2.27;1.40;;;34.90;1.00;;;;;;5111526;28;20488;-78